Time;durP1;ratioP1;P1;durP2;ratioP2;P2;SDS_P1;SDS_P2;PMS_P1;PMS_P2;Temp;Humidity;BMP_temperature;BMP_pressure;BME280_temperature;BME280_humidity;BME280_pressure;Samples;Min_cycle;Max_cycle;Signal;HPM_P1;HPM_P2
2023/01/28 00:01:30;;;;;;;28.70;16.00;;;;;;;-128.00;-1.00;-1.00;105062;1262;1004025;-80
2023/01/28 00:03:57;;;;;;;23.40;16.30;;;;;;;-128.00;-1.00;-1.00;105032;1263;1003929;-80
2023/01/28 00:06:23;;;;;;;26.60;16.20;;;;;;;-128.00;-1.00;-1.00;105051;1262;1004679;-80
2023/01/28 00:08:50;;;;;;;24.70;15.40;;;;;;;-128.00;-1.00;-1.00;105033;1262;1004716;-80
2023/01/28 00:11:17;;;;;;;24.60;15.50;;;;;;;-128.00;-1.00;-1.00;104795;1262;1004647;-80
2023/01/28 00:13:43;;;;;;;23.30;14.50;;;;;;;-128.00;-1.00;-1.00;104964;1263;1004024;-80
2023/01/28 00:16:10;;;;;;;24.30;15.80;;;;;;;-128.00;-1.00;-1.00;105080;1262;1004577;-80
2023/01/28 00:18:37;;;;;;;21.90;14.50;;;;;;;-128.00;-1.00;-1.00;105043;1262;1004052;-80
2023/01/28 00:21:06;;;;;;;23.80;16.00;;;;;;;-128.00;-1.00;-1.00;105037;1262;1004059;-80
2023/01/28 00:23:36;;;;;;;24.90;16.00;;;;;;;-128.00;-1.00;-1.00;105023;1262;1046866;-81
2023/01/28 00:26:13;;;;;;;23.50;14.70;;;;;;;-128.00;-1.00;-1.00;105032;1262;1046459;-80
2023/01/28 00:28:41;;;;;;;26.30;16.10;;;;;;;-128.00;-1.00;-1.00;104925;1262;1060788;-80
2023/01/28 00:31:23;;;;;;;27.20;16.70;;;;;;;-128.00;-1.00;-1.00;104882;1263;1004905;-80
2023/01/28 00:33:50;;;;;;;24.10;16.10;;;;;;;-128.00;-1.00;-1.00;105013;1262;1060259;-80
2023/01/28 00:36:18;;;;;;;25.60;15.80;;;;;;;-128.00;-1.00;-1.00;104932;1263;1003543;-80
2023/01/28 00:38:55;;;;;;;26.30;16.70;;;;;;;-128.00;-1.00;-1.00;104832;1263;1004006;-80
2023/01/28 00:41:24;;;;;;;23.80;15.30;;;;;;;-128.00;-1.00;-1.00;105028;1262;1061151;-81
2023/01/28 00:43:52;;;;;;;26.60;15.80;;;;;;;-128.00;-1.00;-1.00;104822;1263;1054879;-80
2023/01/28 00:46:20;;;;;;;26.50;16.30;;;;;;;-128.00;-1.00;-1.00;105012;1262;1004487;-81
2023/01/28 00:48:47;;;;;;;27.60;17.00;;;;;;;-128.00;-1.00;-1.00;104840;1263;1003766;-80
2023/01/28 00:51:16;;;;;;;28.70;16.20;;;;;;;-128.00;-1.00;-1.00;104934;1263;1004718;-80
2023/01/28 00:53:43;;;;;;;25.10;16.80;;;;;;;-128.00;-1.00;-1.00;105053;1262;1062104;-80
2023/01/28 00:56:14;;;;;;;22.40;15.40;;;;;;;-128.00;-1.00;-1.00;104941;1262;1004612;-81
2023/01/28 00:58:42;;;;;;;27.40;16.20;;;;;;;-128.00;-1.00;-1.00;104953;1263;1059424;-80
2023/01/28 01:01:10;;;;;;;27.20;16.90;;;;;;;-128.00;-1.00;-1.00;104796;1262;1004794;-79
2023/01/28 01:03:37;;;;;;;28.40;17.40;;;;;;;-128.00;-1.00;-1.00;105053;1262;1003790;-80
2023/01/28 01:06:04;;;;;;;25.40;16.50;;;;;;;-128.00;-1.00;-1.00;105058;1263;1004744;-80
2023/01/28 01:08:34;;;;;;;31.00;18.10;;;;;;;-128.00;-1.00;-1.00;105059;1264;1004660;-80
2023/01/28 01:11:02;;;;;;;25.60;17.10;;;;;;;-128.00;-1.00;-1.00;105043;1262;1058071;-81
2023/01/28 01:13:31;;;;;;;28.30;17.20;;;;;;;-128.00;-1.00;-1.00;104948;1268;1004279;-80
2023/01/28 01:16:25;;;;;;;27.10;17.70;;;;;;;-128.00;-1.00;-1.00;105046;1262;1046508;-81
2023/01/28 01:18:53;;;;;;;27.80;17.60;;;;;;;-128.00;-1.00;-1.00;104411;1271;1062636;-80
2023/01/28 01:21:22;;;;;;;25.90;16.30;;;;;;;-128.00;-1.00;-1.00;104386;1271;1005220;-80
2023/01/28 01:23:50;;;;;;;26.60;17.10;;;;;;;-128.00;-1.00;-1.00;104300;1271;1060062;-80
2023/01/28 01:26:17;;;;;;;27.60;16.80;;;;;;;-128.00;-1.00;-1.00;104308;1271;1004807;-80
2023/01/28 01:28:44;;;;;;;27.70;16.30;;;;;;;-128.00;-1.00;-1.00;104308;1271;1004845;-80
2023/01/28 01:31:14;;;;;;;27.40;17.70;;;;;;;-128.00;-1.00;-1.00;104295;1271;1004311;-80
2023/01/28 01:33:42;;;;;;;27.70;17.80;;;;;;;-128.00;-1.00;-1.00;104417;1271;1056013;-80
2023/01/28 01:36:11;;;;;;;29.30;17.60;;;;;;;-128.00;-1.00;-1.00;104494;1271;1004309;-80
2023/01/28 01:38:39;;;;;;;28.90;17.00;;;;;;;-128.00;-1.00;-1.00;104123;1272;1045510;-81
2023/01/28 01:41:06;;;;;;;26.90;17.10;;;;;;;-128.00;-1.00;-1.00;104084;1271;1003589;-80
2023/01/28 01:43:51;;;;;;;26.00;15.60;;;;;;;-128.00;-1.00;-1.00;104403;1271;1004719;-80
2023/01/28 01:46:24;;;;;;;22.90;15.20;;;;;;;-128.00;-1.00;-1.00;104326;1271;1055192;-80
2023/01/28 01:48:52;;;;;;;22.70;16.10;;;;;;;-128.00;-1.00;-1.00;104377;1270;1059860;-81
2023/01/28 01:51:25;;;;;;;27.70;17.00;;;;;;;-128.00;-1.00;-1.00;104353;1271;1003670;-80
2023/01/28 01:53:54;;;;;;;24.80;16.40;;;;;;;-128.00;-1.00;-1.00;104274;1273;1046703;-80
2023/01/28 01:56:27;;;;;;;24.60;16.40;;;;;;;-128.00;-1.00;-1.00;104754;1264;1061626;-80
2023/01/28 01:58:55;;;;;;;26.80;17.60;;;;;;;-128.00;-1.00;-1.00;104999;1263;1055513;-80
2023/01/28 02:01:27;;;;;;;24.40;16.90;;;;;;;-128.00;-1.00;-1.00;104235;1264;1003249;-81
2023/01/28 02:03:54;;;;;;;31.20;19.60;;;;;;;-128.00;-1.00;-1.00;104986;1263;1046947;-80
2023/01/28 02:06:22;;;;;;;26.10;17.30;;;;;;;-128.00;-1.00;-1.00;105025;1263;1004938;-80
2023/01/28 02:08:48;;;;;;;28.70;17.30;;;;;;;-128.00;-1.00;-1.00;105029;1264;1004236;-80
2023/01/28 02:11:16;;;;;;;28.40;17.00;;;;;;;-128.00;-1.00;-1.00;104996;1264;1004332;-79
2023/01/28 02:13:48;;;;;;;25.60;16.40;;;;;;;-128.00;-1.00;-1.00;105009;1263;1004630;-80
2023/01/28 02:16:15;;;;;;;29.30;17.70;;;;;;;-128.00;-1.00;-1.00;104879;1264;1045847;-80
2023/01/28 02:18:42;;;;;;;29.10;17.40;;;;;;;-128.00;-1.00;-1.00;104987;1263;1004405;-80
2023/01/28 02:21:47;;;;;;;25.50;17.50;;;;;;;-128.00;-1.00;-1.00;104955;1263;1003502;-81
2023/01/28 02:24:34;;;;;;;28.20;17.20;;;;;;;-128.00;-1.00;-1.00;105008;1263;1055640;-80
2023/01/28 02:27:26;;;;;;;26.20;18.10;;;;;;;-128.00;-1.00;-1.00;104987;1263;1058900;-80
2023/01/28 02:30:01;;;;;;;26.40;17.10;;;;;;;-128.00;-1.00;-1.00;104988;1263;1047633;-80
2023/01/28 02:32:37;;;;;;;27.60;17.60;;;;;;;-128.00;-1.00;-1.00;105012;1263;1046520;-80
2023/01/28 02:35:10;;;;;;;28.30;17.70;;;;;;;-128.00;-1.00;-1.00;105026;1263;1061823;-81
2023/01/28 02:37:47;;;;;;;27.50;18.20;;;;;;;-128.00;-1.00;-1.00;104981;1264;1055284;-81
2023/01/28 02:41:00;;;;;;;31.70;19.10;;;;;;;-128.00;-1.00;-1.00;104968;1263;1059072;-81
2023/01/28 02:43:35;;;;;;;29.70;18.10;;;;;;;-128.00;-1.00;-1.00;104968;1263;1046031;-81
2023/01/28 02:49:10;;;;;;;29.70;18.10;;;;;;;-128.00;-1.00;-1.00;104965;1263;1061135;-81
2023/01/28 02:51:46;;;;;;;28.40;17.50;;;;;;;-128.00;-1.00;-1.00;104994;1263;1056073;-82
2023/01/28 02:54:28;;;;;;;28.80;19.10;;;;;;;-128.00;-1.00;-1.00;105032;1263;1058875;-81
2023/01/28 02:57:33;;;;;;;24.80;16.40;;;;;;;-128.00;-1.00;-1.00;105127;1263;1045442;-80
2023/01/28 03:00:34;;;;;;;28.50;16.40;;;;;;;-128.00;-1.00;-1.00;105124;1262;1046445;-80
2023/01/28 03:03:14;;;;;;;26.50;18.20;;;;;;;-128.00;-1.00;-1.00;105137;1263;1061491;-81
2023/01/28 03:06:13;;;;;;;28.90;17.50;;;;;;;-128.00;-1.00;-1.00;105029;1262;1056283;-80
2023/01/28 03:36:56;;;;;;;24.60;16.70;;;;;;;-128.00;-1.00;-1.00;105025;1262;1058674;-80
2023/01/28 03:39:29;;;;;;;30.60;19.50;;;;;;;-128.00;-1.00;-1.00;105005;1262;1004210;-80
2023/01/28 03:42:04;;;;;;;29.40;19.50;;;;;;;-128.00;-1.00;-1.00;104992;1262;1047080;-80
2023/01/28 03:44:52;;;;;;;31.10;18.80;;;;;;;-128.00;-1.00;-1.00;105075;1262;1062530;-80
2023/01/28 03:47:23;;;;;;;27.30;18.30;;;;;;;-128.00;-1.00;-1.00;104987;1262;1055693;-80
2023/01/28 03:49:52;;;;;;;30.90;21.00;;;;;;;-128.00;-1.00;-1.00;104869;1262;1059759;-80
2023/01/28 03:52:25;;;;;;;30.40;19.70;;;;;;;-128.00;-1.00;-1.00;105029;1262;1046364;-80
2023/01/28 03:54:52;;;;;;;33.00;19.60;;;;;;;-128.00;-1.00;-1.00;104946;1263;1046910;-81
2023/01/28 03:57:22;;;;;;;34.30;20.90;;;;;;;-128.00;-1.00;-1.00;105016;1263;1004333;-81
2023/01/28 03:59:51;;;;;;;;;;;;;;;-128.00;-1.00;-1.00;104835;1262;1056432;-81
2023/01/28 04:02:20;;;;;;;32.30;20.10;;;;;;;-128.00;-1.00;-1.00;105022;1263;1058653;-80
2023/01/28 04:04:49;;;;;;;28.20;19.40;;;;;;;-128.00;-1.00;-1.00;105001;1263;1046869;-81
2023/01/28 04:07:15;;;;;;;34.10;21.20;;;;;;;-128.00;-1.00;-1.00;105083;1262;1004654;-81
2023/01/28 04:09:43;;;;;;;37.20;20.90;;;;;;;-128.00;-1.00;-1.00;105053;1262;1003656;-81
2023/01/28 04:12:10;;;;;;;29.80;19.50;;;;;;;-128.00;-1.00;-1.00;105027;1262;1004299;-80
2023/01/28 04:14:38;;;;;;;31.80;19.80;;;;;;;-128.00;-1.00;-1.00;105022;1262;1004607;-81
2023/01/28 04:17:09;;;;;;;30.90;19.90;;;;;;;-128.00;-1.00;-1.00;104981;1265;1047078;-80
2023/01/28 04:19:36;;;;;;;29.60;19.70;;;;;;;-128.00;-1.00;-1.00;105033;1262;1048687;-80
2023/01/28 04:22:06;;;;;;;30.70;19.10;;;;;;;-128.00;-1.00;-1.00;105030;1262;1005712;-80
2023/01/28 04:24:33;;;;;;;33.30;19.50;;;;;;;-128.00;-1.00;-1.00;105052;1262;1055512;-80
2023/01/28 04:27:00;;;;;;;32.30;19.50;;;;;;;-128.00;-1.00;-1.00;105024;1262;1004049;-80
2023/01/28 04:29:26;;;;;;;27.80;18.00;;;;;;;-128.00;-1.00;-1.00;104820;1262;1005004;-81
2023/01/28 04:31:53;;;;;;;32.30;19.50;;;;;;;-128.00;-1.00;-1.00;104886;1262;1004463;-81
2023/01/28 04:34:20;;;;;;;30.80;20.80;;;;;;;-128.00;-1.00;-1.00;104312;1262;1004356;-81
2023/01/28 04:36:46;;;;;;;26.90;17.30;;;;;;;-128.00;-1.00;-1.00;105033;1262;1003403;-82
2023/01/28 04:39:13;;;;;;;31.30;20.60;;;;;;;-128.00;-1.00;-1.00;105036;1262;1004017;-81
2023/01/28 04:41:40;;;;;;;29.30;20.30;;;;;;;-128.00;-1.00;-1.00;105034;1263;1003546;-80
2023/01/28 04:44:06;;;;;;;29.90;18.60;;;;;;;-128.00;-1.00;-1.00;105040;1262;1004530;-80
2023/01/28 04:46:33;;;;;;;32.90;20.50;;;;;;;-128.00;-1.00;-1.00;104867;1266;1004802;-80
2023/01/28 04:49:00;;;;;;;29.30;18.70;;;;;;;-128.00;-1.00;-1.00;105045;1262;1004712;-81
2023/01/28 04:51:27;;;;;;;29.80;19.20;;;;;;;-128.00;-1.00;-1.00;105056;1262;1004968;-81
2023/01/28 04:53:54;;;;;;;30.30;18.40;;;;;;;-128.00;-1.00;-1.00;105033;1262;1004913;-81
2023/01/28 04:56:20;;;;;;;31.80;19.80;;;;;;;-128.00;-1.00;-1.00;104932;1262;1004246;-81
2023/01/28 04:58:47;;;;;;;35.00;21.30;;;;;;;-128.00;-1.00;-1.00;105018;1263;1003852;-81
2023/01/28 05:01:14;;;;;;;27.40;18.90;;;;;;;-128.00;-1.00;-1.00;105030;1262;1004178;-81
2023/01/28 05:03:41;;;;;;;30.70;19.60;;;;;;;-128.00;-1.00;-1.00;104792;1262;1004296;-81
2023/01/28 05:06:07;;;;;;;28.00;19.30;;;;;;;-128.00;-1.00;-1.00;105033;1263;1004750;-81
2023/01/28 05:08:34;;;;;;;32.20;20.60;;;;;;;-128.00;-1.00;-1.00;104834;1263;1004571;-81
2023/01/28 05:11:01;;;;;;;35.10;21.60;;;;;;;-128.00;-1.00;-1.00;105018;1262;1003615;-80
2023/01/28 05:13:27;;;;;;;32.00;20.50;;;;;;;-128.00;-1.00;-1.00;105050;1262;1004198;-80
2023/01/28 05:15:54;;;;;;;34.30;20.20;;;;;;;-128.00;-1.00;-1.00;105025;1262;1004436;-81
2023/01/28 05:18:21;;;;;;;33.30;21.70;;;;;;;-128.00;-1.00;-1.00;105010;1262;1003993;-80
2023/01/28 05:20:47;;;;;;;28.80;19.90;;;;;;;-128.00;-1.00;-1.00;105060;1262;1004324;-81
2023/01/28 05:23:14;;;;;;;30.20;19.50;;;;;;;-128.00;-1.00;-1.00;105037;1262;1003995;-81
2023/01/28 05:25:40;;;;;;;33.10;21.20;;;;;;;-128.00;-1.00;-1.00;105040;1262;1003359;-81
2023/01/28 05:28:07;;;;;;;32.30;21.30;;;;;;;-128.00;-1.00;-1.00;105036;1262;1003757;-81
2023/01/28 05:30:34;;;;;;;31.20;20.70;;;;;;;-128.00;-1.00;-1.00;105029;1262;1003903;-81
2023/01/28 05:33:01;;;;;;;29.70;19.60;;;;;;;-128.00;-1.00;-1.00;105023;1262;1004369;-81
2023/01/28 05:35:27;;;;;;;32.70;21.90;;;;;;;-128.00;-1.00;-1.00;105028;1262;1004653;-80
2023/01/28 05:37:54;;;;;;;30.10;19.40;;;;;;;-128.00;-1.00;-1.00;105018;1262;1004157;-80
2023/01/28 05:40:21;;;;;;;30.70;20.20;;;;;;;-128.00;-1.00;-1.00;105039;1262;1003888;-81
2023/01/28 05:42:47;;;;;;;29.60;20.10;;;;;;;-128.00;-1.00;-1.00;105038;1262;1004736;-80
2023/01/28 05:45:14;;;;;;;27.90;18.80;;;;;;;-128.00;-1.00;-1.00;105025;1262;1004264;-81
2023/01/28 05:47:40;;;;;;;35.50;22.50;;;;;;;-128.00;-1.00;-1.00;105037;1262;1004308;-81
2023/01/28 05:50:08;;;;;;;31.00;21.20;;;;;;;-128.00;-1.00;-1.00;105062;1262;1004834;-80
2023/01/28 05:52:35;;;;;;;33.30;21.60;;;;;;;-128.00;-1.00;-1.00;105014;1262;1004538;-80
2023/01/28 05:55:03;;;;;;;34.50;21.10;;;;;;;-128.00;-1.00;-1.00;105010;1262;1004563;-80
2023/01/28 05:57:30;;;;;;;32.90;22.10;;;;;;;-128.00;-1.00;-1.00;105058;1264;1003874;-80
2023/01/28 05:59:56;;;;;;;29.90;20.10;;;;;;;-128.00;-1.00;-1.00;105124;1263;1004114;-80
2023/01/28 06:02:23;;;;;;;30.90;20.00;;;;;;;-128.00;-1.00;-1.00;105130;1262;1004755;-81
2023/01/28 06:04:50;;;;;;;29.60;19.80;;;;;;;-128.00;-1.00;-1.00;105082;1262;1005241;-82
2023/01/28 06:07:19;;;;;;;31.50;21.20;;;;;;;-128.00;-1.00;-1.00;104212;1262;1004667;-80
2023/01/28 06:09:47;;;;;;;31.30;20.80;;;;;;;-128.00;-1.00;-1.00;105024;1262;1047917;-80
2023/01/28 06:12:13;;;;;;;31.90;20.20;;;;;;;-128.00;-1.00;-1.00;104989;1263;1004208;-81
2023/01/28 06:14:40;;;;;;;33.00;20.20;;;;;;;-128.00;-1.00;-1.00;105082;1262;1004676;-80
2023/01/28 06:17:07;;;;;;;31.00;19.50;;;;;;;-128.00;-1.00;-1.00;105054;1263;1005392;-80
2023/01/28 06:19:34;;;;;;;28.60;19.20;;;;;;;-128.00;-1.00;-1.00;105031;1262;1003975;-80
2023/01/28 06:22:00;;;;;;;30.80;19.90;;;;;;;-128.00;-1.00;-1.00;105072;1262;1004380;-80
2023/01/28 06:24:27;;;;;;;29.00;19.80;;;;;;;-128.00;-1.00;-1.00;105046;1262;1004221;-81
2023/01/28 06:26:54;;;;;;;30.40;20.30;;;;;;;-128.00;-1.00;-1.00;105070;1263;1003696;-80
2023/01/28 06:29:21;;;;;;;30.60;20.50;;;;;;;-128.00;-1.00;-1.00;105045;1262;1004894;-81
2023/01/28 06:31:48;;;;;;;29.10;18.50;;;;;;;-128.00;-1.00;-1.00;105010;1263;1003619;-81
2023/01/28 06:34:14;;;;;;;31.00;20.00;;;;;;;-128.00;-1.00;-1.00;105079;1262;1003361;-81
2023/01/28 06:36:41;;;;;;;34.00;21.70;;;;;;;-128.00;-1.00;-1.00;104824;1263;1004481;-81
2023/01/28 06:39:08;;;;;;;31.30;20.70;;;;;;;-128.00;-1.00;-1.00;105029;1263;1005204;-81
2023/01/28 06:41:35;;;;;;;35.30;22.70;;;;;;;-128.00;-1.00;-1.00;105037;1262;1004198;-81
2023/01/28 06:44:01;;;;;;;33.80;20.30;;;;;;;-128.00;-1.00;-1.00;105017;1263;1003597;-81
2023/01/28 06:46:28;;;;;;;34.40;21.70;;;;;;;-128.00;-1.00;-1.00;105083;1262;1004637;-81
2023/01/28 06:48:55;;;;;;;37.10;22.10;;;;;;;-128.00;-1.00;-1.00;105022;1262;1003934;-81
2023/01/28 06:51:21;;;;;;;37.40;21.90;;;;;;;-128.00;-1.00;-1.00;105066;1262;1004237;-80
2023/01/28 06:53:48;;;;;;;37.50;23.70;;;;;;;-128.00;-1.00;-1.00;105019;1262;1003711;-80
2023/01/28 06:56:15;;;;;;;29.00;19.70;;;;;;;-128.00;-1.00;-1.00;105015;1262;1004242;-80
2023/01/28 06:58:42;;;;;;;29.80;18.80;;;;;;;-128.00;-1.00;-1.00;105019;1262;1003549;-80
2023/01/28 07:01:08;;;;;;;31.40;20.80;;;;;;;-128.00;-1.00;-1.00;105053;1262;1003882;-80
2023/01/28 07:03:35;;;;;;;30.60;19.60;;;;;;;-128.00;-1.00;-1.00;105059;1263;1005137;-81
2023/01/28 07:06:02;;;;;;;33.10;21.60;;;;;;;-128.00;-1.00;-1.00;105028;1262;1003651;-80
2023/01/28 07:08:29;;;;;;;31.10;18.00;;;;;;;-128.00;-1.00;-1.00;105046;1262;1006075;-81
2023/01/28 07:10:56;;;;;;;31.70;20.00;;;;;;;-128.00;-1.00;-1.00;105060;1262;1003574;-81
2023/01/28 07:13:22;;;;;;;31.90;20.40;;;;;;;-128.00;-1.00;-1.00;105027;1262;1003412;-81
2023/01/28 07:15:49;;;;;;;28.10;19.20;;;;;;;-128.00;-1.00;-1.00;105061;1262;1003840;-81
2023/01/28 07:18:16;;;;;;;31.40;19.20;;;;;;;-128.00;-1.00;-1.00;105067;1262;1004680;-81
2023/01/28 07:20:42;;;;;;;32.50;20.50;;;;;;;-128.00;-1.00;-1.00;105056;1262;1004771;-81
2023/01/28 07:23:09;;;;;;;30.40;19.20;;;;;;;-128.00;-1.00;-1.00;105059;1263;1004713;-81
2023/01/28 07:25:36;;;;;;;31.30;21.20;;;;;;;-128.00;-1.00;-1.00;105062;1263;1004369;-80
2023/01/28 07:28:03;;;;;;;27.70;18.50;;;;;;;-128.00;-1.00;-1.00;104831;1263;1004786;-80
2023/01/28 07:30:30;;;;;;;28.90;17.90;;;;;;;-128.00;-1.00;-1.00;105025;1262;1003886;-81
2023/01/28 07:32:58;;;;;;;29.60;18.60;;;;;;;-128.00;-1.00;-1.00;105066;1262;1004225;-81
2023/01/28 07:35:25;;;;;;;31.00;18.70;;;;;;;-128.00;-1.00;-1.00;105052;1262;1004025;-82
2023/01/28 07:37:58;;;;;;;27.40;18.10;;;;;;;-128.00;-1.00;-1.00;104767;1262;1004119;-80
2023/01/28 07:40:26;;;;;;;27.90;18.70;;;;;;;-128.00;-1.00;-1.00;105074;1262;1055469;-81
2023/01/28 07:42:54;;;;;;;26.80;17.40;;;;;;;-128.00;-1.00;-1.00;104960;1263;1004461;-81
2023/01/28 07:45:22;;;;;;;30.30;19.90;;;;;;;-128.00;-1.00;-1.00;105074;1262;1004767;-81
2023/01/28 07:47:56;;;;;;;26.50;18.60;;;;;;;-128.00;-1.00;-1.00;104971;1263;1003681;-81
2023/01/28 07:50:24;;;;;;;26.60;18.30;;;;;;;-128.00;-1.00;-1.00;105031;1262;1061438;-80
2023/01/28 07:52:50;;;;;;;25.30;18.40;;;;;;;-128.00;-1.00;-1.00;105054;1262;1004135;-80
2023/01/28 07:55:17;;;;;;;26.70;19.10;;;;;;;-128.00;-1.00;-1.00;105058;1262;1003749;-83
2023/01/28 07:57:52;;;;;;;28.50;18.30;;;;;;;-128.00;-1.00;-1.00;105036;1262;1004126;-82
2023/01/28 08:00:21;;;;;;;30.50;18.80;;;;;;;-128.00;-1.00;-1.00;104914;1263;1046860;-81
2023/01/28 08:02:49;;;;;;;28.30;18.50;;;;;;;-128.00;-1.00;-1.00;104953;1262;1061540;-80
2023/01/28 08:05:18;;;;;;;26.60;17.70;;;;;;;-128.00;-1.00;-1.00;105068;1262;1004589;-80
2023/01/28 08:07:48;;;;;;;27.90;18.10;;;;;;;-128.00;-1.00;-1.00;105057;1262;1059804;-81
2023/01/28 08:10:16;;;;;;;25.40;16.70;;;;;;;-128.00;-1.00;-1.00;105085;1262;1045299;-81
2023/01/28 08:13:00;;;;;;;29.00;18.50;;;;;;;-128.00;-1.00;-1.00;105057;1262;1004976;-82
2023/01/28 08:15:28;;;;;;;28.70;19.40;;;;;;;-128.00;-1.00;-1.00;105068;1263;1061502;-81
2023/01/28 08:17:56;;;;;;;25.40;17.60;;;;;;;-128.00;-1.00;-1.00;105055;1262;1005147;-81
2023/01/28 08:20:24;;;;;;;29.00;18.30;;;;;;;-128.00;-1.00;-1.00;104946;1262;1004491;-80
2023/01/28 08:22:51;;;;;;;30.10;19.10;;;;;;;-128.00;-1.00;-1.00;105058;1262;1004545;-80
2023/01/28 08:25:18;;;;;;;27.30;19.60;;;;;;;-128.00;-1.00;-1.00;105112;1262;1004616;-81
2023/01/28 08:27:44;;;;;;;30.60;21.20;;;;;;;-128.00;-1.00;-1.00;104910;1266;1004260;-81
2023/01/28 08:30:11;;;;;;;29.90;20.30;;;;;;;-128.00;-1.00;-1.00;105076;1262;1004085;-82
2023/01/28 08:32:38;;;;;;;26.30;18.10;;;;;;;-128.00;-1.00;-1.00;105056;1262;1004992;-81
2023/01/28 08:35:06;;;;;;;29.40;19.40;;;;;;;-128.00;-1.00;-1.00;105053;1262;1004411;-81
2023/01/28 08:37:33;;;;;;;26.50;17.70;;;;;;;-128.00;-1.00;-1.00;104957;1263;1003917;-80
2023/01/28 08:40:00;;;;;;;29.20;18.90;;;;;;;-128.00;-1.00;-1.00;105046;1262;1004571;-81
2023/01/28 08:42:26;;;;;;;31.30;19.40;;;;;;;-128.00;-1.00;-1.00;105042;1263;1004614;-81
2023/01/28 08:44:53;;;;;;;25.80;18.30;;;;;;;-128.00;-1.00;-1.00;105064;1262;1004829;-82
2023/01/28 08:47:19;;;;;;;29.60;17.50;;;;;;;-128.00;-1.00;-1.00;105072;1262;1004643;-82
2023/01/28 08:49:46;;;;;;;26.40;18.00;;;;;;;-128.00;-1.00;-1.00;104808;1263;1003874;-82
2023/01/28 08:52:13;;;;;;;31.30;19.70;;;;;;;-128.00;-1.00;-1.00;105069;1262;1004530;-80
2023/01/28 08:54:39;;;;;;;27.60;18.00;;;;;;;-128.00;-1.00;-1.00;105076;1262;1004984;-81
2023/01/28 08:57:06;;;;;;;27.50;18.00;;;;;;;-128.00;-1.00;-1.00;105024;1263;1003696;-81
2023/01/28 08:59:33;;;;;;;25.10;18.00;;;;;;;-128.00;-1.00;-1.00;105075;1262;1004282;-81
2023/01/28 09:01:59;;;;;;;28.10;17.30;;;;;;;-128.00;-1.00;-1.00;105085;1263;1003956;-81
2023/01/28 09:04:26;;;;;;;26.60;18.20;;;;;;;-128.00;-1.00;-1.00;105051;1263;1004225;-81
2023/01/28 09:06:53;;;;;;;24.20;15.70;;;;;;;-128.00;-1.00;-1.00;104898;1262;1003701;-81
2023/01/28 09:09:20;;;;;;;26.30;17.10;;;;;;;-128.00;-1.00;-1.00;104954;1263;1004749;-82
2023/01/28 09:11:46;;;;;;;27.50;17.90;;;;;;;-128.00;-1.00;-1.00;105062;1262;1003348;-81
2023/01/28 09:14:13;;;;;;;24.80;16.30;;;;;;;-128.00;-1.00;-1.00;105104;1262;1004136;-82
2023/01/28 09:16:40;;;;;;;28.90;17.70;;;;;;;-128.00;-1.00;-1.00;105113;1262;1004345;-81
2023/01/28 09:19:06;;;;;;;25.60;18.60;;;;;;;-128.00;-1.00;-1.00;105086;1263;1004989;-81
2023/01/28 09:21:33;;;;;;;30.40;17.30;;;;;;;-128.00;-1.00;-1.00;105163;1262;1003954;-80
2023/01/28 09:24:00;;;;;;;28.60;18.70;;;;;;;-128.00;-1.00;-1.00;105139;1262;1003580;-81
2023/01/28 09:26:26;;;;;;;30.40;19.70;;;;;;;-128.00;-1.00;-1.00;105179;1263;1003677;-82
2023/01/28 09:28:53;;;;;;;25.80;17.30;;;;;;;-128.00;-1.00;-1.00;105132;1262;1004375;-81
2023/01/28 09:31:19;;;;;;;25.90;17.50;;;;;;;-128.00;-1.00;-1.00;105070;1262;1003725;-80
2023/01/28 09:33:47;;;;;;;26.30;17.00;;;;;;;-128.00;-1.00;-1.00;104328;1262;1003709;-81
2023/01/28 09:36:14;;;;;;;26.10;16.70;;;;;;;-128.00;-1.00;-1.00;105114;1262;1004898;-81
2023/01/28 09:38:40;;;;;;;24.40;16.40;;;;;;;-128.00;-1.00;-1.00;105024;1263;1003850;-82
2023/01/28 09:41:23;;;;;;;24.00;16.20;;;;;;;-128.00;-1.00;-1.00;105124;1262;1003707;-80
2023/01/28 09:44:43;;;;;;;25.00;17.30;;;;;;;-128.00;-1.00;-1.00;105125;1262;1055964;-80
2023/01/28 09:47:21;;;;;;;29.00;18.20;;;;;;;-128.00;-1.00;-1.00;104574;1270;1060782;-81
2023/01/28 09:49:52;;;;;;;25.20;18.00;;;;;;;-128.00;-1.00;-1.00;103789;1270;1045567;-80
2023/01/28 09:52:22;;;;;;;26.50;16.70;;;;;;;-128.00;-1.00;-1.00;104434;1270;1046489;-79
2023/01/28 09:55:10;;;;;;;25.10;16.00;;;;;;;-128.00;-1.00;-1.00;104423;1270;1060912;-80
2023/01/28 09:57:42;;;;;;;25.90;16.30;;;;;;;-128.00;-1.00;-1.00;104452;1270;1056278;-81
2023/01/28 10:00:13;;;;;;;25.20;16.70;;;;;;;-128.00;-1.00;-1.00;104411;1270;1059076;-80
2023/01/28 10:02:45;;;;;;;22.00;15.50;;;;;;;-128.00;-1.00;-1.00;104578;1270;1045266;-81
2023/01/28 10:05:35;;;;;;;23.50;16.10;;;;;;;-128.00;-1.00;-1.00;104557;1270;1047854;-81
2023/01/28 10:08:33;;;;;;;22.60;15.50;;;;;;;-128.00;-1.00;-1.00;104447;1270;1062008;-80
2023/01/28 10:11:41;;;;;;;27.20;16.70;;;;;;;-128.00;-1.00;-1.00;104590;1270;1056441;-80
2023/01/28 10:14:40;;;;;;;26.00;17.10;;;;;;;-128.00;-1.00;-1.00;104111;1275;1058609;-81
2023/01/28 10:17:47;;;;;;;22.70;14.40;;;;;;;-128.00;-1.00;-1.00;103441;1282;1045408;-78
2023/01/28 10:20:35;;;;;;;21.60;14.30;;;;;;;-128.00;-1.00;-1.00;102668;1287;1046791;-78
2023/01/28 10:23:29;;;;;;;23.60;15.30;;;;;;;-128.00;-1.00;-1.00;103009;1283;1061749;-78
2023/01/28 10:25:58;;;;;;;21.50;14.80;;;;;;;-128.00;-1.00;-1.00;103128;1283;1056307;-78
2023/01/28 10:28:28;;;;;;;23.50;16.10;;;;;;;-128.00;-1.00;-1.00;102869;1283;1059522;-78
2023/01/28 10:30:55;;;;;;;23.80;16.30;;;;;;;-128.00;-1.00;-1.00;103139;1283;1045568;-78
2023/01/28 10:33:35;;;;;;;21.10;13.70;;;;;;;-128.00;-1.00;-1.00;103086;1283;1004229;-78
2023/01/28 10:36:02;;;;;;;20.50;14.80;;;;;;;-128.00;-1.00;-1.00;103113;1283;1060663;-78
2023/01/28 10:38:30;;;;;;;22.20;15.60;;;;;;;-128.00;-1.00;-1.00;103075;1283;1003981;-78
2023/01/28 10:41:00;;;;;;;21.50;15.70;;;;;;;-128.00;-1.00;-1.00;103105;1283;1004249;-78
2023/01/28 10:43:34;;;;;;;25.30;15.90;;;;;;;-128.00;-1.00;-1.00;102844;1283;1044882;-78
2023/01/28 10:46:06;;;;;;;24.20;15.20;;;;;;;-128.00;-1.00;-1.00;102970;1283;1048316;-79
2023/01/28 10:48:37;;;;;;;21.10;14.90;;;;;;;-128.00;-1.00;-1.00;103015;1283;1063076;-79
2023/01/28 10:51:05;;;;;;;24.60;16.50;;;;;;;-128.00;-1.00;-1.00;103381;1277;1055611;-79
2023/01/28 10:53:43;;;;;;;25.90;16.80;;;;;;;-128.00;-1.00;-1.00;103774;1272;1003696;-79
2023/01/28 10:56:14;;;;;;;27.10;17.50;;;;;;;-128.00;-1.00;-1.00;104472;1263;1046210;-79
2023/01/28 10:59:03;;;;;;;28.60;17.70;;;;;;;-128.00;-1.00;-1.00;105052;1263;1047552;-79
2023/01/28 11:01:44;;;;;;;26.90;17.10;;;;;;;-128.00;-1.00;-1.00;104287;1262;1060791;-79
2023/01/28 11:04:32;;;;;;;20.10;14.00;;;;;;;-128.00;-1.00;-1.00;104844;1263;1056281;-79
2023/01/28 11:07:03;;;;;;;19.00;12.60;;;;;;;-128.00;-1.00;-1.00;105034;1263;1058723;-79
2023/01/28 11:09:35;;;;;;;18.40;12.50;;;;;;;-128.00;-1.00;-1.00;105063;1262;1046632;-79
2023/01/28 11:12:25;;;;;;;19.20;13.00;;;;;;;-128.00;-1.00;-1.00;104762;1263;1047098;-79
2023/01/28 11:14:56;;;;;;;16.50;12.70;;;;;;;-128.00;-1.00;-1.00;104868;1262;1061711;-79
2023/01/28 11:17:26;;;;;;;17.30;12.50;;;;;;;-128.00;-1.00;-1.00;105042;1262;1056372;-77
2023/01/28 11:19:54;;;;;;;20.20;13.60;;;;;;;-128.00;-1.00;-1.00;104848;1263;1059840;-78
2023/01/28 11:22:41;;;;;;;17.40;12.30;;;;;;;-128.00;-1.00;-1.00;105039;1262;1046019;-78
2023/01/28 11:25:29;;;;;;;18.20;12.40;;;;;;;-128.00;-1.00;-1.00;104955;1262;1046978;-77
2023/01/28 11:27:56;;;;;;;22.00;14.20;;;;;;;-128.00;-1.00;-1.00;104975;1263;1062386;-77
2023/01/28 11:30:28;;;;;;;17.60;13.10;;;;;;;-128.00;-1.00;-1.00;105039;1262;1004025;-77
2023/01/28 11:33:20;;;;;;;16.40;12.70;;;;;;;-128.00;-1.00;-1.00;105023;1262;1058473;-78
2023/01/28 11:36:04;;;;;;;17.70;13.00;;;;;;;-128.00;-1.00;-1.00;104164;1270;1045343;-78
2023/01/28 11:38:31;;;;;;;18.00;13.10;;;;;;;-128.00;-1.00;-1.00;104466;1270;1046461;-78
2023/01/28 11:41:00;;;;;;;17.80;13.30;;;;;;;-128.00;-1.00;-1.00;104410;1270;1003576;-77
2023/01/28 11:43:30;;;;;;;16.10;12.50;;;;;;;-128.00;-1.00;-1.00;104416;1270;1056140;-79
2023/01/28 11:46:03;;;;;;;20.10;13.20;;;;;;;-128.00;-1.00;-1.00;104389;1270;1058408;-78
2023/01/28 11:48:40;;;;;;;16.80;12.40;;;;;;;-128.00;-1.00;-1.00;104411;1270;1045103;-79
2023/01/28 11:51:41;;;;;;;18.60;12.90;;;;;;;-128.00;-1.00;-1.00;104474;1270;1045991;-78